Time;durP1;ratioP1;P1;durP2;ratioP2;P2;SDS_P1;SDS_P2;PMS_P1;PMS_P2;Temp;Humidity;BMP_temperature;BMP_pressure;BME280_temperature;BME280_humidity;BME280_pressure;Samples;Min_cycle;Max_cycle;Signal;HPM_P1;HPM_P2
2023/05/08 00:00:28;;;;;;;26.45;23.65;;;;;;;14.09;100.00;101996.13;5104632;28;20035;-74
2023/05/08 00:02:53;;;;;;;26.92;23.90;;;;;;;14.08;100.00;101995.25;5107208;28;20592;-74
2023/05/08 00:05:18;;;;;;;25.90;23.20;;;;;;;14.08;100.00;101994.41;5105885;28;20031;-74
2023/05/08 00:07:44;;;;;;;26.58;22.80;;;;;;;14.07;100.00;102001.41;5107469;28;20020;-74
2023/05/08 00:10:09;;;;;;;27.55;23.35;;;;;;;14.08;100.00;102007.50;5109016;28;20472;-74
2023/05/08 00:12:36;;;;;;;27.13;23.40;;;;;;;14.05;100.00;102004.03;5106283;28;20402;-73
2023/05/08 00:15:03;;;;;;;28.58;25.40;;;;;;;14.08;100.00;102011.00;5100766;28;20047;-74
2023/05/08 00:17:28;;;;;;;27.48;24.58;;;;;;;14.04;100.00;101999.72;5088468;28;20360;-74
2023/05/08 00:19:54;;;;;;;27.70;24.70;;;;;;;14.07;100.00;102001.41;5103459;28;20104;-74
2023/05/08 00:22:19;;;;;;;27.23;24.15;;;;;;;14.03;100.00;101995.38;5115014;28;20451;-74
2023/05/08 00:24:44;;;;;;;27.13;24.35;;;;;;;14.07;100.00;102004.03;5104692;28;20058;-74
2023/05/08 00:27:10;;;;;;;27.88;24.42;;;;;;;14.06;100.00;101997.06;5110570;28;20027;-74
2023/05/08 00:29:35;;;;;;;29.45;26.20;;;;;;;14.08;100.00;101997.03;5096266;28;20024;-73
2023/05/08 00:32:01;;;;;;;27.58;24.70;;;;;;;14.06;100.00;101997.06;5111748;28;20028;-73
2023/05/08 00:34:26;;;;;;;29.60;26.50;;;;;;;14.04;100.00;101998.84;5109863;28;20016;-73
2023/05/08 00:36:52;;;;;;;29.10;25.98;;;;;;;14.06;100.00;102007.56;5113163;28;20025;-73
2023/05/08 00:39:17;;;;;;;29.50;26.33;;;;;;;14.05;100.00;102000.56;5106759;28;20471;-73
2023/05/08 00:41:42;;;;;;;29.00;25.85;;;;;;;14.05;100.00;102009.28;5107595;28;20032;-73
2023/05/08 00:44:08;;;;;;;31.48;26.38;;;;;;;14.03;100.00;101994.50;5098778;28;20032;-74
2023/05/08 00:46:35;;;;;;;29.50;26.20;;;;;;;14.02;100.00;101995.38;5112028;28;20486;-74
2023/05/08 00:49:01;;;;;;;27.70;24.77;;;;;;;13.95;100.00;101994.63;5108366;28;20047;-73
2023/05/08 00:51:26;;;;;;;27.73;24.73;;;;;;;13.97;100.00;102002.50;5107502;28;20375;-74
2023/05/08 00:53:52;;;;;;;29.35;24.20;;;;;;;13.91;100.00;101992.97;5098981;28;20506;-74
2023/05/08 00:56:20;;;;;;;26.95;24.10;;;;;;;13.92;100.00;102001.69;5100387;28;20480;-73
2023/05/08 00:58:46;;;;;;;28.45;24.42;;;;;;;13.90;100.00;101987.78;5110423;28;20024;-74
2023/05/08 01:01:13;;;;;;;29.85;25.02;;;;;;;13.89;100.00;101993.88;5109523;28;20467;-74
2023/05/08 01:03:39;;;;;;;28.73;22.88;;;;;;;13.89;100.00;101986.03;5095754;28;20020;-74
2023/05/08 01:06:05;;;;;;;26.75;23.90;;;;;;;13.87;100.00;101980.81;5111911;28;20028;-74
2023/05/08 01:08:31;;;;;;;26.60;23.67;;;;;;;13.90;100.00;101985.16;5112853;28;20024;-74
2023/05/08 01:11:08;;;;;;;26.85;23.27;;;;;;;13.93;100.00;101992.94;5110950;28;20023;-73
2023/05/08 01:14:14;;;;;;;26.63;23.75;;;;;;;13.93;100.00;101991.19;5113773;28;20228;-73
2023/05/08 01:16:44;;;;;;;27.38;24.27;;;;;;;13.90;100.00;101993.88;5084912;28;20380;-74
2023/05/08 01:19:15;;;;;;;27.98;24.67;;;;;;;13.89;100.00;101993.88;5114589;28;20102;-74
2023/05/08 01:21:55;;;;;;;26.95;23.15;;;;;;;13.89;100.00;101986.03;5100998;27;20463;-74
2023/05/08 01:24:32;;;;;;;26.42;23.25;;;;;;;13.87;100.00;101987.81;5113790;28;20031;-74
2023/05/08 01:27:39;;;;;;;25.75;23.02;;;;;;;13.88;100.00;101985.16;5114251;28;20104;-74
2023/05/08 01:30:28;;;;;;;26.38;22.80;;;;;;;13.83;100.00;101989.63;5113696;28;20026;-74
2023/05/08 01:32:57;;;;;;;27.23;22.98;;;;;;;13.80;100.00;101980.06;5114321;28;20047;-74
2023/05/08 01:35:46;;;;;;;28.52;23.67;;;;;;;13.84;100.00;101982.66;5114083;28;20427;-74
2023/05/08 01:38:21;;;;;;;27.52;23.38;;;;;;;13.84;100.00;101998.38;5106602;28;20074;-73
2023/05/08 01:41:02;;;;;;;27.00;24.00;;;;;;;13.81;100.00;101988.81;5112118;28;20523;-74
2023/05/08 01:43:44;;;;;;;28.95;24.30;;;;;;;13.79;100.00;101982.72;5113624;28;20039;-74
2023/05/08 01:46:16;;;;;;;26.50;23.23;;;;;;;13.77;100.00;101981.91;5106868;28;20036;-74
2023/05/08 01:49:03;;;;;;;28.08;24.02;;;;;;;13.81;100.00;101991.41;5107235;28;20350;-74
2023/05/08 01:51:35;;;;;;;31.77;25.25;;;;;;;13.79;100.00;101986.19;5110849;28;20031;-74
2023/05/08 01:54:05;;;;;;;27.88;23.60;;;;;;;13.77;100.00;101980.13;5098700;28;20020;-74
2023/05/08 01:56:31;;;;;;;28.60;24.02;;;;;;;13.78;100.00;101988.84;5106524;28;20051;-73
2023/05/08 01:58:59;;;;;;;29.02;24.92;;;;;;;13.82;100.00;101993.13;5101025;28;20058;-74
2023/05/08 02:01:27;;;;;;;27.08;23.63;;;;;;;13.80;100.00;101993.19;5090531;28;20035;-74
2023/05/08 02:03:54;;;;;;;27.55;24.05;;;;;;;13.77;100.00;101993.25;5110421;28;20038;-74
2023/05/08 02:06:22;;;;;;;29.25;24.65;;;;;;;13.75;100.00;101995.00;5101926;28;20039;-74
2023/05/08 02:08:49;;;;;;;27.83;23.80;;;;;;;13.73;100.00;101991.56;5103209;28;20047;-74
2023/05/08 02:11:17;;;;;;;30.25;23.80;;;;;;;13.69;100.00;101994.25;5103020;28;20146;-74
2023/05/08 02:13:46;;;;;;;27.70;23.80;;;;;;;13.70;100.00;101998.59;5110847;28;20023;-74
2023/05/08 02:16:13;;;;;;;29.73;23.75;;;;;;;13.71;100.00;102008.22;5099578;28;20043;-74
2023/05/08 02:18:43;;;;;;;25.98;23.17;;;;;;;13.74;100.00;102009.00;5110447;28;20047;-74
2023/05/08 02:21:11;;;;;;;28.95;23.80;;;;;;;13.70;100.00;102009.06;5112926;28;20051;-74
2023/05/08 02:23:37;;;;;;;29.25;23.65;;;;;;;13.66;100.00;102010.03;5107972;28;20059;-74
2023/05/08 02:26:03;;;;;;;29.63;23.55;;;;;;;13.65;100.00;102003.06;5098013;28;20059;-74
2023/05/08 02:28:29;;;;;;;28.60;23.00;;;;;;;13.70;100.00;102004.72;5095041;28;20027;-74
2023/05/08 02:30:57;;;;;;;29.55;25.05;;;;;;;13.69;100.00;102005.59;5112932;28;20028;-73
2023/05/08 02:33:23;;;;;;;30.45;23.95;;;;;;;13.73;100.00;102014.28;5110181;28;20036;-74
2023/05/08 02:35:50;;;;;;;31.77;25.73;;;;;;;13.70;100.00;102009.97;5105886;28;20023;-73
2023/05/08 02:38:19;;;;;;;31.95;25.65;;;;;;;13.71;100.00;102009.06;5095037;28;20059;-73
2023/05/08 02:40:48;;;;;;;30.33;23.75;;;;;;;13.67;100.00;102010.03;5104039;28;20459;-74
2023/05/08 02:43:14;;;;;;;30.25;25.52;;;;;;;13.61;100.00;102002.25;5106571;28;20087;-74
2023/05/08 02:45:46;;;;;;;31.77;25.35;;;;;;;13.67;100.00;102014.38;5105687;28;20467;-74
2023/05/08 02:48:21;;;;;;;31.60;26.33;;;;;;;13.65;100.00;102005.69;5111264;28;20077;-74
2023/05/08 02:50:49;;;;;;;30.90;25.33;;;;;;;13.66;100.00;102004.78;5110547;28;20024;-74
2023/05/08 02:53:24;;;;;;;32.08;26.67;;;;;;;13.67;100.00;102009.13;5111873;28;20498;-74
2023/05/08 02:55:53;;;;;;;32.13;25.67;;;;;;;13.64;100.00;102003.97;5109675;28;20043;-73
2023/05/08 02:58:33;;;;;;;29.05;24.80;;;;;;;13.60;100.00;102000.50;5107513;28;20019;-74
2023/05/08 03:01:11;;;;;;;32.10;26.10;;;;;;;13.61;100.00;102002.25;5108823;28;20027;-73
2023/05/08 03:03:44;;;;;;;33.75;26.60;;;;;;;13.62;100.00;102000.50;5109418;28;20444;-73
2023/05/08 03:06:21;;;;;;;33.78;27.95;;;;;;;13.58;100.00;101994.47;5103569;28;20110;-74
2023/05/08 03:08:49;;;;;;;30.88;26.05;;;;;;;13.61;100.00;101997.03;5109383;28;20123;-74
2023/05/08 03:11:18;;;;;;;33.95;27.73;;;;;;;13.58;100.00;101997.94;5108465;28;20024;-73
2023/05/08 03:13:46;;;;;;;31.17;26.02;;;;;;;13.60;100.00;101997.91;5106975;28;20118;-74
2023/05/08 03:16:19;;;;;;;35.22;27.40;;;;;;;13.64;100.00;102001.34;5106170;28;20174;-74
2023/05/08 03:18:58;;;;;;;30.92;25.15;;;;;;;13.56;100.00;101997.09;5108287;28;20023;-74
2023/05/08 03:21:27;;;;;;;34.40;26.60;;;;;;;13.53;100.00;101991.03;5106882;27;20394;-74
2023/05/08 03:23:55;;;;;;;32.83;25.33;;;;;;;13.51;100.00;101995.47;5098935;28;20043;-73
2023/05/08 03:26:21;;;;;;;33.95;27.05;;;;;;;13.47;100.00;101994.66;5114053;28;20026;-74
2023/05/08 03:28:50;;;;;;;30.38;25.63;;;;;;;13.47;100.00;101999.88;5111228;28;20432;-74
2023/05/08 03:31:21;;;;;;;32.55;26.73;;;;;;;13.44;100.00;102002.56;5116136;28;20463;-74
2023/05/08 03:33:47;;;;;;;31.83;26.80;;;;;;;13.42;100.00;102001.72;5115590;28;20058;-74
2023/05/08 03:36:14;;;;;;;32.83;26.60;;;;;;;13.40;100.00;102005.25;5096403;28;20020;-74
2023/05/08 03:38:40;;;;;;;32.20;26.73;;;;;;;13.25;100.00;101981.03;5105121;28;20028;-74
2023/05/08 03:41:05;;;;;;;31.90;26.13;;;;;;;13.25;100.00;101986.28;5105773;28;20035;-74
2023/05/08 03:43:31;;;;;;;32.20;25.75;;;;;;;13.28;100.00;101994.09;5104891;28;20390;-74
2023/05/08 03:45:57;;;;;;;30.73;26.33;;;;;;;13.23;100.00;101993.25;5102820;28;20606;-74
2023/05/08 03:48:24;;;;;;;31.45;26.38;;;;;;;13.19;100.00;101986.34;5102967;28;20063;-74
2023/05/08 03:50:50;;;;;;;31.05;24.88;;;;;;;13.19;100.00;101993.34;5105718;28;20030;-74
2023/05/08 03:53:16;;;;;;;32.13;26.48;;;;;;;13.16;100.00;101993.38;5097900;28;20024;-73
2023/05/08 03:55:41;;;;;;;31.65;25.58;;;;;;;13.15;100.00;101992.53;5100247;28;20016;-74
2023/05/08 03:58:40;;;;;;;32.72;26.85;;;;;;;13.18;100.00;101989.88;5109286;28;20028;-74
2023/05/08 04:01:27;;;;;;;32.00;26.20;;;;;;;13.16;100.00;101988.16;5107242;28;20034;-73
2023/05/08 04:03:52;;;;;;;31.10;25.08;;;;;;;13.19;100.00;101994.19;5100748;28;20032;-74
2023/05/08 04:06:44;;;;;;;34.83;26.67;;;;;;;13.23;100.00;101990.63;5105418;28;20069;-74
2023/05/08 04:09:37;;;;;;;30.45;26.17;;;;;;;13.25;100.00;101993.28;5106400;28;20376;-73
2023/05/08 04:12:08;;;;;;;37.30;28.10;;;;;;;13.25;100.00;102002.00;5095174;28;20085;-74
2023/05/08 04:14:41;;;;;;;33.20;27.23;;;;;;;13.26;100.00;101998.47;5095542;28;20298;-73
2023/05/08 04:17:10;;;;;;;32.25;26.15;;;;;;;13.25;100.00;101994.13;5095999;28;20042;-74
2023/05/08 04:19:41;;;;;;;34.63;27.75;;;;;;;13.29;100.00;102006.28;5095479;28;20032;-74
2023/05/08 04:22:09;;;;;;;35.45;28.27;;;;;;;13.33;100.00;102010.56;5110552;28;20036;-73
2023/05/08 04:24:40;;;;;;;34.08;27.73;;;;;;;13.35;100.00;102005.34;5100441;28;20125;-73
2023/05/08 04:27:07;;;;;;;36.20;27.75;;;;;;;13.39;100.00;102011.38;5112989;28;20027;-74
2023/05/08 04:29:36;;;;;;;34.78;28.65;;;;;;;13.41;100.00;102009.63;5104863;28;20456;-74
2023/05/08 04:32:04;;;;;;;33.22;27.35;;;;;;;13.39;100.00;102003.53;5111833;28;20483;-74
2023/05/08 04:34:30;;;;;;;34.28;27.50;;;;;;;13.45;100.00;102013.91;5104869;28;20028;-74
2023/05/08 04:36:56;;;;;;;34.25;28.13;;;;;;;13.48;100.00;102000.75;5110968;28;20042;-74
2023/05/08 04:39:21;;;;;;;36.38;28.90;;;;;;;13.54;100.00;102008.50;5094385;28;20039;-74
2023/05/08 04:41:47;;;;;;;36.42;27.73;;;;;;;13.58;100.00;102018.03;5102300;28;20451;-74
2023/05/08 04:44:13;;;;;;;34.10;27.63;;;;;;;13.59;100.00;102015.38;5110677;28;20032;-74
2023/05/08 04:46:38;;;;;;;32.95;26.83;;;;;;;13.64;100.00;102017.94;5100212;28;20375;-74
2023/05/08 04:49:03;;;;;;;33.70;27.27;;;;;;;13.72;100.00;102023.88;5108145;28;20023;-74
2023/05/08 04:51:30;;;;;;;31.17;26.17;;;;;;;13.78;100.00;102022.94;5113953;28;20055;-74
2023/05/08 04:53:55;;;;;;;37.08;29.00;;;;;;;13.82;100.00;102022.84;5105256;28;20095;-74
2023/05/08 04:56:21;;;;;;;34.30;28.70;;;;;;;13.89;100.00;102038.44;5115055;28;20494;-74
2023/05/08 04:58:46;;;;;;;35.00;27.75;;;;;;;13.90;100.00;102029.72;5114742;28;20020;-74
2023/05/08 05:01:11;;;;;;;32.05;27.88;;;;;;;13.94;100.00;102027.00;5109358;28;20021;-74
2023/05/08 05:03:36;;;;;;;32.63;27.77;;;;;;;13.95;100.00;102028.72;5114265;28;20012;-74
2023/05/08 05:06:02;;;;;;;34.35;29.40;;;;;;;13.99;100.00;102035.63;5107596;28;20495;-74
2023/05/08 05:08:27;;;;;;;42.25;30.88;;;;;;;14.00;100.00;102042.63;5114075;28;20144;-74
2023/05/08 05:10:52;;;;;;;37.80;30.25;;;;;;;14.02;100.00;102050.44;5114581;28;20138;-74
2023/05/08 05:13:18;;;;;;;41.38;31.92;;;;;;;14.04;100.00;102051.28;5114928;28;20027;-74
2023/05/08 05:15:44;;;;;;;42.40;33.67;;;;;;;14.04;100.00;102043.41;5113695;27;20039;-74
2023/05/08 05:18:10;;;;;;;38.90;31.25;;;;;;;14.07;100.00;102053.00;5109837;28;20030;-74
2023/05/08 05:20:36;;;;;;;41.47;32.15;;;;;;;14.08;100.00;102052.09;5114872;28;20424;-74
2023/05/08 05:23:01;;;;;;;42.83;31.80;;;;;;;14.09;100.00;102052.03;5113759;28;20042;-73
2023/05/08 05:25:26;;;;;;;41.63;32.20;;;;;;;14.13;100.00;102055.50;5114547;28;20471;-74
2023/05/08 05:27:52;;;;;;;44.50;32.28;;;;;;;14.15;100.00;102066.81;5114177;28;20807;-73
2023/05/08 05:30:17;;;;;;;44.80;33.03;;;;;;;14.15;100.00;102059.81;5113539;28;20032;-74
2023/05/08 05:32:42;;;;;;;40.88;32.72;;;;;;;14.21;100.00;102064.06;5113936;28;20026;-74
2023/05/08 05:35:08;;;;;;;47.80;33.22;;;;;;;14.20;100.00;102055.34;5107977;28;20078;-74
2023/05/08 05:37:34;;;;;;;42.33;32.35;;;;;;;14.27;100.00;102070.06;5110066;28;20390;-74
2023/05/08 05:39:59;;;;;;;42.20;31.05;;;;;;;14.33;100.00;102065.59;5106264;28;20095;-74
2023/05/08 05:42:25;;;;;;;41.88;33.00;;;;;;;14.40;100.00;102064.59;5093949;28;20024;-74
2023/05/08 05:44:50;;;;;;;40.28;32.85;;;;;;;14.47;100.00;102063.56;5113391;28;20413;-74
2023/05/08 05:47:15;;;;;;;38.80;30.73;;;;;;;14.52;100.00;102067.88;5102452;28;20050;-74
2023/05/08 05:49:45;;;;;;;40.28;30.77;;;;;;;14.55;100.00;102063.44;5113020;28;20047;-74
2023/05/08 05:52:11;;;;;;;47.70;30.92;;;;;;;14.60;100.00;102075.56;5108592;28;20031;-74
2023/05/08 05:54:36;;;;;;;40.75;30.23;;;;;;;14.64;100.00;102064.09;5107078;28;20020;-74
2023/05/08 05:57:02;;;;;;;43.00;33.10;;;;;;;14.66;100.00;102067.56;5101541;28;20107;-74
2023/05/08 05:59:27;;;;;;;40.65;30.45;;;;;;;14.72;100.00;102079.72;5113709;28;20378;-74
2023/05/08 06:01:52;;;;;;;40.28;32.17;;;;;;;14.75;100.00;102075.25;5100141;28;20085;-73
2023/05/08 06:04:17;;;;;;;39.28;31.30;;;;;;;14.79;100.00;102080.44;5105453;28;20466;-74
2023/05/08 06:06:43;;;;;;;40.45;32.80;;;;;;;14.82;100.00;102081.25;5111117;28;20039;-74
2023/05/08 06:09:08;;;;;;;39.42;32.45;;;;;;;14.85;100.00;102072.44;5098482;28;20498;-74
2023/05/08 06:11:36;;;;;;;39.80;31.95;;;;;;;14.90;100.00;102078.44;5108852;28;20122;-74
2023/05/08 06:14:01;;;;;;;39.83;31.83;;;;;;;14.92;100.00;102079.28;5113595;28;20027;-74
2023/05/08 06:16:27;;;;;;;41.67;32.20;;;;;;;14.96;100.00;102079.16;5106523;28;20047;-74
2023/05/08 06:18:52;;;;;;;45.00;33.63;;;;;;;14.99;100.00;102078.25;5111771;28;20023;-74
2023/05/08 06:21:17;;;;;;;46.65;35.30;;;;;;;14.99;100.00;102070.38;5113509;28;20032;-74
2023/05/08 06:23:43;;;;;;;44.08;32.65;;;;;;;15.02;100.00;102072.94;5113236;28;20020;-74
2023/05/08 06:26:08;;;;;;;46.55;34.70;;;;;;;15.06;100.00;102074.56;5104403;28;20027;-74
2023/05/08 06:28:33;;;;;;;46.70;35.88;;;;;;;15.06;100.00;102061.44;5111732;28;20108;-74
2023/05/08 06:30:59;;;;;;;48.28;35.97;;;;;;;15.13;100.00;102072.69;5113290;27;20027;-74
2023/05/08 06:33:24;;;;;;;42.80;34.50;;;;;;;15.20;100.00;102077.78;5112469;28;20497;-74
2023/05/08 06:35:49;;;;;;;42.65;34.80;;;;;;;15.30;100.00;102081.03;5103253;28;20034;-74
2023/05/08 06:38:15;;;;;;;45.78;34.38;;;;;;;15.34;100.00;102063.44;5108470;28;20030;-74
2023/05/08 06:40:44;;;;;;;50.30;37.42;;;;;;;15.47;100.00;102080.66;5105990;28;20019;-73
2023/05/08 06:43:10;;;;;;;47.85;37.22;;;;;;;15.51;100.00;102081.44;5113297;28;20019;-73
2023/05/08 06:45:36;;;;;;;45.60;37.20;;;;;;;15.55;100.00;102086.56;5111114;28;20020;-73
2023/05/08 06:48:01;;;;;;;52.55;39.13;;;;;;;15.61;100.00;102080.31;5107448;28;20043;-74
2023/05/08 06:50:26;;;;;;;45.50;36.85;;;;;;;15.65;100.00;102084.56;5112168;28;20027;-74
2023/05/08 06:52:52;;;;;;;45.95;37.03;;;;;;;15.72;100.00;102093.19;5106892;28;20398;-74
2023/05/08 06:55:17;;;;;;;46.25;37.58;;;;;;;15.74;100.00;102094.03;5112959;28;20024;-74
2023/05/08 06:57:42;;;;;;;47.47;37.40;;;;;;;15.71;100.00;102091.47;5090350;28;20024;-74
2023/05/08 07:00:08;;;;;;;49.10;37.08;;;;;;;15.68;100.00;102080.13;5090918;28;20505;-74
2023/05/08 07:02:34;;;;;;;50.30;36.70;;;;;;;15.71;100.00;102107.25;5103188;28;20062;-75
2023/05/08 07:04:59;;;;;;;46.00;36.97;;;;;;;15.62;100.00;102101.28;5097686;28;20020;-75
2023/05/08 07:07:24;;;;;;;49.97;36.83;;;;;;;15.51;100.00;102095.44;5111341;28;20099;-73
2023/05/08 07:09:50;;;;;;;50.00;37.30;;;;;;;15.55;100.00;102104.09;5111623;28;20382;-73
2023/05/08 07:12:15;;;;;;;46.35;36.75;;;;;;;15.50;100.00;102095.44;5099352;28;20420;-77
2023/05/08 07:14:42;;;;;;;52.83;39.78;;;;;;;15.54;100.00;102100.63;5095578;28;20035;-74
2023/05/08 07:17:07;;;;;;;57.08;40.25;;;;;;;15.58;100.00;102104.88;5091703;28;20063;-74
2023/05/08 07:19:36;;;;;;;66.43;42.83;;;;;;;15.59;100.00;102105.75;5091930;28;20056;-73
2023/05/08 07:22:03;;;;;;;54.78;39.88;;;;;;;15.61;100.00;102103.97;5094201;28;20036;-73
2023/05/08 07:24:28;;;;;;;54.45;40.45;;;;;;;15.64;100.00;102110.00;5112636;28;20035;-73
2023/05/08 07:26:53;;;;;;;54.33;40.67;;;;;;;15.72;100.00;102101.09;5105703;28;20383;-73
2023/05/08 07:29:19;;;;;;;51.88;38.67;;;;;;;15.72;100.00;102101.09;5099935;28;20031;-79
2023/05/08 07:31:45;;;;;;;49.80;37.53;;;;;;;15.86;100.00;102105.13;5107554;28;20031;-73
2023/05/08 07:34:11;;;;;;;47.63;36.05;;;;;;;15.97;100.00;102096.94;5111069;28;20179;-71
2023/05/08 07:36:36;;;;;;;49.08;35.95;;;;;;;16.08;100.00;102104.53;5102245;28;20531;-74
2023/05/08 07:39:02;;;;;;;40.60;33.17;;;;;;;16.14;100.00;102101.75;5094108;28;20466;-73
2023/05/08 07:41:28;;;;;;;43.10;33.50;;;;;;;16.18;100.00;102095.50;5104699;28;20490;-73
2023/05/08 07:43:53;;;;;;;43.42;33.95;;;;;;;16.30;100.00;102094.31;5104297;28;20063;-74
2023/05/08 07:46:18;;;;;;;41.13;33.35;;;;;;;16.44;100.00;102096.56;5110956;28;20016;-74
2023/05/08 07:48:44;;;;;;;37.15;30.70;;;;;;;16.59;100.00;102097.00;5112129;28;20371;-73
2023/05/08 07:51:10;;;;;;;39.90;32.13;;;;;;;16.65;100.00;102092.47;5108498;28;20478;-73
2023/05/08 07:53:35;;;;;;;36.80;30.60;;;;;;;16.75;100.00;102093.94;5112482;28;20028;-73
2023/05/08 07:56:01;;;;;;;38.17;31.50;;;;;;;16.82;100.00;102098.13;5107975;28;20035;-73
2023/05/08 07:58:26;;;;;;;36.95;29.77;;;;;;;16.88;100.00;102097.94;5098449;28;20024;-73
2023/05/08 08:00:52;;;;;;;39.25;31.77;;;;;;;16.99;100.00;102095.84;5110746;28;20114;-73
2023/05/08 08:03:18;;;;;;;36.17;30.83;;;;;;;17.22;100.00;102103.03;5108510;28;20047;-74
2023/05/08 08:05:43;;;;;;;35.13;29.10;;;;;;;17.30;100.00;102101.03;5093518;28;20019;-74
2023/05/08 08:08:08;;;;;;;35.05;28.23;;;;;;;17.37;100.00;102099.06;5104353;28;20501;-73
2023/05/08 08:10:34;;;;;;;38.33;29.23;;;;;;;17.51;100.00;102094.19;5105427;28;20082;-73
2023/05/08 08:13:00;;;;;;;32.95;27.88;;;;;;;17.53;100.00;102095.03;5112555;28;20020;-78
2023/05/08 08:15:27;;;;;;;36.78;28.90;;;;;;;17.60;100.00;102097.47;5098394;28;20066;-73
2023/05/08 08:17:53;;;;;;;34.47;28.17;;;;;;;17.68;100.00;102105.97;5102903;28;20046;-73
2023/05/08 08:20:18;;;;;;;33.67;29.48;;;;;;;17.65;100.00;102100.78;5093952;28;20031;-72
2023/05/08 08:22:44;;;;;;;35.15;28.10;;;;;;;17.70;100.00;102109.44;5095896;28;20031;-72
2023/05/08 08:25:09;;;;;;;38.70;28.63;;;;;;;17.70;100.00;102102.38;5107661;28;20028;-72
2023/05/08 08:27:34;;;;;;;35.10;27.80;;;;;;;17.77;100.00;102100.44;5115428;28;20379;-72
2023/05/08 08:30:00;;;;;;;34.83;28.15;;;;;;;17.76;100.00;102104.84;5114326;28;20071;-72
2023/05/08 08:32:25;;;;;;;33.85;28.40;;;;;;;17.71;100.00;102097.97;5114151;28;20023;-72
2023/05/08 08:34:50;;;;;;;35.40;30.05;;;;;;;17.67;100.00;102098.97;5115368;28;20110;-72
2023/05/08 08:37:16;;;;;;;35.58;30.35;;;;;;;17.68;100.00;102092.78;5115494;28;20432;-72
2023/05/08 08:39:41;;;;;;;36.13;30.48;;;;;;;17.81;100.00;102080.94;5108795;28;20047;-73
2023/05/08 08:42:07;;;;;;;36.90;30.33;;;;;;;18.01;100.00;102099.56;5115361;28;20030;-73
2023/05/08 08:44:32;;;;;;;36.65;31.48;;;;;;;18.13;100.00;102097.44;5115233;28;20020;-73
2023/05/08 08:46:59;;;;;;;35.53;28.20;;;;;;;18.18;100.00;102095.47;5114522;27;20064;-73
2023/05/08 08:49:33;;;;;;;38.80;30.48;;;;;;;18.31;100.00;102091.53;5115202;28;20032;-73
2023/05/08 08:52:02;;;;;;;31.98;28.58;;;;;;;18.45;100.00;102089.22;5106251;28;20016;-72
2023/05/08 08:54:30;;;;;;;34.00;28.92;;;;;;;18.49;100.00;102098.75;5109877;28;20027;-73
2023/05/08 08:57:02;;;;;;;35.45;30.00;;;;;;;18.54;100.00;102089.78;5115140;28;20023;-73
2023/05/08 08:59:28;;;;;;;37.80;30.35;;;;;;;18.54;100.00;102095.97;5114324;28;20500;-72
2023/05/08 09:02:03;;;;;;;34.70;29.08;;;;;;;18.53;100.00;102096.00;5115061;28;20475;-72
2023/05/08 09:04:30;;;;;;;38.38;31.15;;;;;;;18.37;100.00;102095.69;5115198;28;20157;-72
2023/05/08 09:06:58;;;;;;;33.00;28.63;;;;;;;18.16;100.00;102102.63;5113980;28;20451;-73
2023/05/08 09:09:24;;;;;;;34.90;28.42;;;;;;;18.05;100.00;102099.47;5115139;27;20028;-73
2023/05/08 09:11:51;;;;;;;34.92;29.08;;;;;;;18.04;100.00;102103.03;5114402;28;20046;-73
2023/05/08 09:14:17;;;;;;;36.25;29.40;;;;;;;18.12;100.00;102107.13;5114443;28;20042;-72
2023/05/08 09:16:42;;;;;;;36.47;30.75;;;;;;;18.23;100.00;102099.69;5114250;28;20711;-73
2023/05/08 09:19:08;;;;;;;35.42;31.20;;;;;;;18.16;100.00;102098.19;5114717;28;20467;-73
2023/05/08 09:21:33;;;;;;;39.80;32.05;;;;;;;18.13;100.00;102098.31;5114136;28;20019;-73
2023/05/08 09:24:03;;;;;;;34.15;30.45;;;;;;;18.22;100.00;102091.84;5114665;28;20049;-73
2023/05/08 09:26:37;;;;;;;39.15;31.30;;;;;;;18.39;100.00;102096.50;5114601;28;20505;-73
2023/05/08 09:29:20;;;;;;;40.47;32.88;;;;;;;18.76;100.00;102103.97;5113985;28;20027;-73
2023/05/08 09:31:48;;;;;;;40.17;34.50;;;;;;;18.90;100.00;102100.78;5114265;28;20364;-73
2023/05/08 09:34:27;;;;;;;39.25;32.88;;;;;;;18.88;100.00;102103.50;5114611;28;20091;-73
2023/05/08 09:37:14;;;;;;;38.72;34.03;;;;;;;18.79;100.00;102101.19;5113610;28;20104;-73
2023/05/08 09:39:40;;;;;;;42.33;35.78;;;;;;;18.71;100.00;102101.47;5108894;28;20114;-73
2023/05/08 09:42:06;;;;;;;46.10;35.92;;;;;;;18.57;100.00;102098.47;5102067;28;20050;-73
2023/05/08 09:44:52;;;;;;;43.95;36.40;;;;;;;18.47;100.00;102107.63;5112116;28;20019;-73
2023/05/08 09:47:20;;;;;;;48.90;38.53;;;;;;;18.25;100.00;102102.28;5114538;28;20117;-73
2023/05/08 09:49:58;;;;;;;49.65;38.00;;;;;;;18.21;100.00;102100.66;5113148;28;20028;-72
2023/05/08 09:52:23;;;;;;;52.13;39.45;;;;;;;18.17;100.00;102101.69;5114299;28;20023;-73
2023/05/08 09:54:57;;;;;;;51.58;38.90;;;;;;;18.25;100.00;102103.16;5113870;28;20050;-73
2023/05/08 09:57:23;;;;;;;51.05;38.75;;;;;;;18.37;100.00;102101.84;5113467;28;20020;-73
2023/05/08 09:59:48;;;;;;;53.40;39.05;;;;;;;18.53;100.00;102106.56;5099422;28;20030;-73
2023/05/08 10:02:15;;;;;;;52.80;38.78;;;;;;;18.64;100.00;102107.06;5114029;28;20471;-72
2023/05/08 10:04:40;;;;;;;52.17;39.28;;;;;;;18.77;100.00;102102.16;5112638;28;20459;-73
2023/05/08 10:07:05;;;;;;;52.83;39.13;;;;;;;18.86;100.00;102105.31;5113958;28;20043;-73
2023/05/08 10:09:31;;;;;;;48.00;37.80;;;;;;;18.83;100.00;102101.94;5113964;28;20081;-73
2023/05/08 10:11:59;;;;;;;50.08;38.70;;;;;;;19.01;100.00;102110.97;5112904;28;20611;-73
2023/05/08 10:14:24;;;;;;;55.30;40.35;;;;;;;19.04;100.00;102108.19;5114032;28;20103;-73
2023/05/08 10:16:51;;;;;;;52.17;39.63;;;;;;;19.08;100.00;102112.44;5112342;28;20096;-73
2023/05/08 10:19:23;;;;;;;52.65;38.13;;;;;;;19.06;100.00;102108.97;5113651;28;20027;-72
2023/05/08 10:21:53;;;;;;;48.47;38.03;;;;;;;19.04;100.00;102114.34;5110530;28;20023;-73
2023/05/08 10:24:20;;;;;;;49.85;38.60;;;;;;;19.08;100.00;102112.44;5101758;28;20023;-73
2023/05/08 10:27:00;;;;;;;56.97;39.50;;;;;;;19.09;100.00;102111.50;5113133;28;20031;-72
2023/05/08 10:29:45;;;;;;;53.30;38.65;;;;;;;19.10;100.00;102113.25;5113660;28;20031;-73
2023/05/08 10:32:14;;;;;;;51.38;38.17;;;;;;;18.87;100.00;102114.13;5111783;28;20031;-73
2023/05/08 10:34:41;;;;;;;52.08;38.60;;;;;;;18.75;100.00;102115.44;5085620;28;20094;-73
2023/05/08 10:37:10;;;;;;;50.17;36.67;;;;;;;18.73;100.00;102119.91;5113559;28;20035;-73
2023/05/08 10:39:36;;;;;;;50.33;38.53;;;;;;;18.69;100.00;102105.94;5108713;28;20035;-73
2023/05/08 10:42:02;;;;;;;53.13;38.92;;;;;;;18.76;100.00;102106.59;5113236;28;20019;-73
2023/05/08 10:44:31;;;;;;;53.33;38.30;;;;;;;18.91;100.00;102108.66;5113075;28;20386;-72
2023/05/08 10:47:21;;;;;;;49.85;36.85;;;;;;;19.30;100.00;102108.03;5112403;28;20023;-73
2023/05/08 10:50:19;;;;;;;52.67;38.17;;;;;;;19.69;100.00;102110.00;5112602;28;20493;-73
2023/05/08 10:53:06;;;;;;;52.13;38.30;;;;;;;19.81;100.00;102106.84;5111902;28;20035;-73
2023/05/08 10:55:36;;;;;;;54.92;39.30;;;;;;;19.94;100.00;102095.72;5113016;28;20379;-72
2023/05/08 10:58:11;;;;;;;53.20;38.78;;;;;;;20.21;100.00;102088.38;5098264;28;20383;-73
2023/05/08 11:00:51;;;;;;;55.08;40.25;;;;;;;20.29;100.00;102096.84;5112182;28;20032;-73
2023/05/08 11:03:18;;;;;;;54.10;39.95;;;;;;;20.24;100.00;102098.81;5112830;28;20451;-73
2023/05/08 11:05:46;;;;;;;57.03;42.22;;;;;;;20.24;100.00;102097.06;5112954;28;20047;-73
2023/05/08 11:08:22;;;;;;;52.92;41.25;;;;;;;20.28;100.00;102096.00;5112207;28;20031;-73